Time;durP1;ratioP1;P1;durP2;ratioP2;P2;SDS_P1;SDS_P2;PMS_P1;PMS_P2;Temp;Humidity;BMP_temperature;BMP_pressure;BME280_temperature;BME280_humidity;BME280_pressure;Samples;Min_cycle;Max_cycle;Signal;HPM_P1;HPM_P2
2024/02/27 00:01:21;;;;;;;6.83;1.03;;;8.90;99.90;;;;;;5110346;28;20451;-69
2024/02/27 00:03:51;;;;;;;6.47;1.00;;;8.90;99.90;;;;;;5110716;28;20455;-69
2024/02/27 00:06:19;;;;;;;6.57;0.80;;;8.90;99.90;;;;;;5110668;28;20556;-70
2024/02/27 00:08:47;;;;;;;6.90;1.27;;;8.90;99.90;;;;;;5106666;28;20446;-70
2024/02/27 00:11:15;;;;;;;6.37;1.07;;;8.80;99.90;;;;;;5091819;28;20439;-69
2024/02/27 00:13:43;;;;;;;6.87;1.50;;;8.80;99.90;;;;;;5096222;28;20519;-70
2024/02/27 00:16:11;;;;;;;7.97;1.40;;;8.70;99.90;;;;;;5101458;28;20470;-70
2024/02/27 00:18:42;;;;;;;7.10;1.17;;;8.70;99.90;;;;;;5103239;28;20457;-70
2024/02/27 00:21:12;;;;;;;6.63;1.13;;;8.70;99.90;;;;;;5095026;28;20973;-70
2024/02/27 00:23:40;;;;;;;7.30;1.13;;;8.70;99.90;;;;;;5095242;28;20538;-70
2024/02/27 00:26:08;;;;;;;6.87;1.00;;;8.70;99.90;;;;;;5089219;28;20493;-69
2024/02/27 00:28:36;;;;;;;7.40;1.00;;;8.70;99.90;;;;;;5107239;28;20446;-69
2024/02/27 00:31:04;;;;;;;6.63;1.07;;;8.60;99.90;;;;;;5096137;28;20447;-70
2024/02/27 00:33:32;;;;;;;6.40;1.00;;;8.50;99.90;;;;;;5103851;28;20551;-69
2024/02/27 00:36:01;;;;;;;6.40;1.00;;;8.40;99.90;;;;;;5109107;28;20468;-70
2024/02/27 00:38:30;;;;;;;6.63;1.00;;;8.50;99.90;;;;;;5107655;28;20946;-70
2024/02/27 00:40:58;;;;;;;6.60;1.07;;;8.50;99.90;;;;;;5108637;28;20476;-69
2024/02/27 00:43:26;;;;;;;7.33;1.10;;;8.50;99.90;;;;;;5100347;28;20852;-70
2024/02/27 00:45:54;;;;;;;6.90;1.43;;;8.40;99.90;;;;;;5095710;28;20484;-68
2024/02/27 00:48:22;;;;;;;6.23;1.10;;;8.40;99.90;;;;;;5104968;28;20524;-70
2024/02/27 00:50:51;;;;;;;6.17;0.93;;;8.30;99.90;;;;;;5107772;28;20504;-70
2024/02/27 00:53:21;;;;;;;6.30;1.00;;;8.30;99.90;;;;;;5102990;28;20452;-70
2024/02/27 00:55:50;;;;;;;6.00;0.77;;;8.40;99.90;;;;;;5106807;28;20486;-70
2024/02/27 00:58:19;;;;;;;8.30;3.30;;;8.40;99.90;;;;;;5100910;28;20851;-70
2024/02/27 01:00:46;;;;;;;6.33;1.03;;;8.30;99.90;;;;;;5088268;28;20489;-70
2024/02/27 01:03:14;;;;;;;8.23;1.23;;;8.40;99.90;;;;;;5100353;28;20483;-69
2024/02/27 01:05:43;;;;;;;6.30;0.80;;;8.30;99.90;;;;;;5088154;28;20508;-71
2024/02/27 01:08:11;;;;;;;6.60;1.00;;;8.40;99.90;;;;;;5100425;28;20472;-69
2024/02/27 01:10:38;;;;;;;6.40;1.57;;;8.40;99.90;;;;;;5103486;28;20453;-69
2024/02/27 01:13:08;;;;;;;7.20;1.40;;;8.40;99.90;;;;;;5101019;28;20454;-69
2024/02/27 01:15:36;;;;;;;6.50;1.13;;;8.30;99.90;;;;;;5107154;28;20439;-69
2024/02/27 01:18:04;;;;;;;8.53;1.53;;;8.20;99.90;;;;;;5100130;28;20462;-70
2024/02/27 01:20:35;;;;;;;7.03;1.63;;;8.20;99.90;;;;;;5098068;28;20438;-70
2024/02/27 01:23:03;;;;;;;7.67;1.73;;;8.20;99.90;;;;;;5102406;28;20987;-70
2024/02/27 01:25:30;;;;;;;8.07;2.40;;;8.10;99.90;;;;;;5090609;28;20680;-69
2024/02/27 01:27:58;;;;;;;7.33;1.80;;;8.20;99.90;;;;;;5081808;28;20494;-69
2024/02/27 01:30:28;;;;;;;8.50;2.10;;;8.10;99.90;;;;;;5087939;28;20468;-69
2024/02/27 01:32:56;;;;;;;7.63;2.40;;;8.10;99.90;;;;;;5094183;28;20869;-69
2024/02/27 01:35:24;;;;;;;7.80;2.20;;;8.10;99.90;;;;;;5103711;28;20484;-69
2024/02/27 01:37:52;;;;;;;8.33;2.60;;;8.00;99.90;;;;;;5095210;28;20471;-69
2024/02/27 01:40:20;;;;;;;7.37;2.10;;;8.00;99.90;;;;;;5087653;28;20558;-69
2024/02/27 01:42:48;;;;;;;7.33;1.73;;;8.00;99.90;;;;;;5107681;28;20449;-70
2024/02/27 01:45:21;;;;;;;8.10;2.20;;;8.00;99.90;;;;;;5107778;28;20485;-70
2024/02/27 01:47:52;;;;;;;8.13;2.30;;;7.90;99.90;;;;;;5107839;28;20467;-69
2024/02/27 01:50:23;;;;;;;8.40;2.20;;;7.90;99.90;;;;;;5107455;28;20486;-69
2024/02/27 01:52:52;;;;;;;7.97;2.20;;;7.90;99.90;;;;;;5098023;28;20492;-70
2024/02/27 01:55:21;;;;;;;8.47;2.40;;;7.80;99.90;;;;;;5103282;28;20437;-69
2024/02/27 01:57:49;;;;;;;10.07;2.03;;;7.80;99.90;;;;;;5106971;28;20472;-70
2024/02/27 02:00:18;;;;;;;7.83;2.30;;;7.80;99.90;;;;;;5107595;28;20447;-70
2024/02/27 02:02:46;;;;;;;7.67;1.90;;;7.80;99.90;;;;;;5098751;28;20440;-70
2024/02/27 02:05:16;;;;;;;8.20;2.33;;;7.80;99.90;;;;;;5107428;28;20488;-69
2024/02/27 02:07:44;;;;;;;7.47;1.97;;;7.80;99.90;;;;;;5107607;28;20461;-69
2024/02/27 02:10:12;;;;;;;8.20;2.63;;;7.80;99.90;;;;;;5101265;28;20813;-69
2024/02/27 02:12:40;;;;;;;8.43;2.40;;;7.80;99.90;;;;;;5101362;28;20437;-69
2024/02/27 02:15:09;;;;;;;8.27;2.67;;;7.90;99.90;;;;;;5104632;28;20446;-69
2024/02/27 02:17:37;;;;;;;12.23;4.47;;;7.90;99.90;;;;;;5106305;28;20458;-69
2024/02/27 02:20:08;;;;;;;10.20;3.30;;;7.80;99.90;;;;;;5095009;28;20801;-69
2024/02/27 02:22:37;;;;;;;11.90;4.30;;;7.90;99.90;;;;;;5102095;28;20448;-70
2024/02/27 02:25:08;;;;;;;9.87;3.30;;;8.00;99.90;;;;;;5104256;28;20449;-70
2024/02/27 02:27:40;;;;;;;10.33;3.70;;;7.90;99.90;;;;;;5099536;28;20473;-69
2024/02/27 02:30:10;;;;;;;10.73;4.30;;;7.80;99.90;;;;;;5098660;28;20430;-69
2024/02/27 02:32:46;;;;;;;12.07;4.80;;;7.90;99.90;;;;;;5106621;28;20479;-70
2024/02/27 02:35:14;;;;;;;14.23;5.63;;;7.90;99.90;;;;;;5106748;28;20490;-70
2024/02/27 02:37:47;;;;;;;11.43;4.53;;;7.90;99.90;;;;;;5097550;28;20514;-70
2024/02/27 02:40:15;;;;;;;12.33;4.90;;;7.90;99.90;;;;;;5106827;28;20441;-70
2024/02/27 02:42:44;;;;;;;10.50;4.50;;;7.90;99.90;;;;;;5106553;28;20461;-69
2024/02/27 02:45:13;;;;;;;11.17;4.47;;;7.90;99.90;;;;;;5100627;28;20950;-69
2024/02/27 02:47:41;;;;;;;12.47;4.77;;;7.90;99.90;;;;;;5104580;28;20555;-69
2024/02/27 02:50:10;;;;;;;12.40;5.50;;;7.90;99.90;;;;;;5107533;28;20470;-70
2024/02/27 02:52:39;;;;;;;12.80;5.63;;;7.80;99.90;;;;;;5098833;27;20477;-70
2024/02/27 02:55:09;;;;;;;11.70;5.03;;;7.80;99.90;;;;;;5099905;28;20623;-69
2024/02/27 02:57:37;;;;;;;12.97;6.03;;;7.80;99.90;;;;;;5092756;28;20556;-70
2024/02/27 03:00:07;;;;;;;12.27;5.37;;;7.80;99.90;;;;;;5099068;28;20450;-71
2024/02/27 03:02:35;;;;;;;12.20;5.00;;;7.70;99.90;;;;;;5092556;28;20450;-70
2024/02/27 03:05:05;;;;;;;14.00;6.00;;;7.70;99.90;;;;;;5100040;28;20503;-71
2024/02/27 03:07:33;;;;;;;13.90;5.83;;;7.70;99.90;;;;;;5095627;28;20929;-71
2024/02/27 03:10:01;;;;;;;12.70;5.23;;;7.70;99.90;;;;;;5100967;28;20473;-70
2024/02/27 03:12:30;;;;;;;12.70;5.80;;;7.70;99.90;;;;;;5093800;28;20526;-69
2024/02/27 03:14:58;;;;;;;13.60;6.03;;;7.70;99.90;;;;;;5113344;28;20471;-71
2024/02/27 03:17:26;;;;;;;11.97;5.40;;;7.60;99.90;;;;;;5107096;28;20585;-71
2024/02/27 03:19:54;;;;;;;13.60;5.30;;;7.70;99.90;;;;;;5104071;28;20933;-69
2024/02/27 03:22:22;;;;;;;14.73;5.50;;;7.60;99.90;;;;;;5113328;28;20923;-69
2024/02/27 03:24:50;;;;;;;11.93;5.07;;;7.60;99.90;;;;;;5104586;28;20525;-69
2024/02/27 03:27:18;;;;;;;14.40;5.73;;;7.60;99.90;;;;;;5112299;28;20477;-70
2024/02/27 03:29:49;;;;;;;11.90;5.43;;;7.60;99.90;;;;;;5104976;28;20490;-71
2024/02/27 03:32:19;;;;;;;11.50;5.50;;;7.60;99.90;;;;;;5112838;28;20561;-70
2024/02/27 03:34:47;;;;;;;13.23;4.87;;;7.50;99.90;;;;;;5102313;28;20959;-70
2024/02/27 03:37:16;;;;;;;12.47;5.40;;;7.50;99.90;;;;;;5093307;28;21265;-70
2024/02/27 03:39:44;;;;;;;11.87;4.80;;;7.50;99.90;;;;;;5113201;28;20448;-70
2024/02/27 03:42:12;;;;;;;11.37;5.27;;;7.40;99.90;;;;;;5109212;28;20524;-68
2024/02/27 03:44:45;;;;;;;12.00;5.30;;;7.40;99.90;;;;;;5113707;28;20479;-70
2024/02/27 03:47:15;;;;;;;13.80;5.73;;;7.40;99.90;;;;;;5110338;28;20487;-70
2024/02/27 03:49:43;;;;;;;13.60;6.20;;;7.50;99.90;;;;;;5112880;28;20502;-70
2024/02/27 03:52:12;;;;;;;14.67;6.57;;;7.50;99.90;;;;;;5112937;28;20468;-70
2024/02/27 03:54:39;;;;;;;15.00;6.37;;;7.50;99.90;;;;;;5109805;28;20900;-69
2024/02/27 03:57:09;;;;;;;14.10;6.80;;;7.50;99.90;;;;;;5106726;28;21002;-70
2024/02/27 03:59:38;;;;;;;14.83;6.70;;;7.50;99.90;;;;;;5100341;28;20483;-69
2024/02/27 04:02:07;;;;;;;14.40;6.73;;;7.50;99.90;;;;;;5095566;28;20544;-69
2024/02/27 04:04:37;;;;;;;15.23;6.00;;;7.50;99.90;;;;;;5110872;28;20525;-69
2024/02/27 04:07:05;;;;;;;16.47;8.10;;;7.50;99.90;;;;;;5110355;28;20490;-69
2024/02/27 04:09:33;;;;;;;17.83;6.30;;;7.50;99.90;;;;;;5109137;28;20464;-69
2024/02/27 04:12:01;;;;;;;12.80;6.10;;;7.50;99.90;;;;;;5106548;28;20497;-69
2024/02/27 04:14:29;;;;;;;14.77;6.60;;;7.50;99.90;;;;;;5100934;28;20509;-69
2024/02/27 04:16:57;;;;;;;19.70;6.40;;;7.50;99.90;;;;;;5092002;28;20458;-69
2024/02/27 04:19:25;;;;;;;14.00;6.00;;;7.50;99.90;;;;;;5099315;28;20547;-69
2024/02/27 04:21:54;;;;;;;14.93;6.30;;;7.50;99.90;;;;;;5099078;28;20442;-69
2024/02/27 04:24:22;;;;;;;13.30;6.07;;;7.50;99.90;;;;;;5104853;28;20504;-69
2024/02/27 04:26:50;;;;;;;15.37;6.57;;;7.50;99.90;;;;;;5108652;28;20509;-69
2024/02/27 04:29:18;;;;;;;15.63;6.47;;;7.50;99.90;;;;;;5102269;28;20466;-69
2024/02/27 04:31:46;;;;;;;18.17;7.30;;;7.50;99.90;;;;;;5093347;28;20521;-69
2024/02/27 04:34:15;;;;;;;12.87;6.20;;;7.50;99.90;;;;;;5104194;28;20873;-68
2024/02/27 04:36:46;;;;;;;14.07;5.97;;;7.50;99.90;;;;;;5106600;28;20471;-69
2024/02/27 04:39:16;;;;;;;13.43;5.70;;;7.50;99.90;;;;;;5088821;28;20480;-69
2024/02/27 04:41:44;;;;;;;16.40;7.10;;;7.40;99.90;;;;;;5105437;28;20467;-69
2024/02/27 04:44:12;;;;;;;14.60;7.00;;;7.40;99.90;;;;;;5095405;28;20474;-69
2024/02/27 04:46:40;;;;;;;15.20;6.33;;;7.40;99.90;;;;;;5108206;28;20486;-69
2024/02/27 04:49:08;;;;;;;14.80;6.97;;;7.40;99.90;;;;;;5108687;28;20461;-71
2024/02/27 04:51:36;;;;;;;12.67;6.20;;;7.50;99.90;;;;;;5098783;28;21066;-71
2024/02/27 04:54:04;;;;;;;13.93;6.67;;;7.50;99.90;;;;;;5095711;28;20455;-71
2024/02/27 04:56:34;;;;;;;15.70;6.97;;;7.50;99.90;;;;;;5107771;28;20497;-71
2024/02/27 04:59:02;;;;;;;13.60;6.90;;;7.50;99.90;;;;;;5103408;28;21022;-71
2024/02/27 05:01:29;;;;;;;15.47;7.23;;;7.50;99.90;;;;;;5087885;28;20474;-71
2024/02/27 05:03:58;;;;;;;14.97;7.50;;;7.40;99.90;;;;;;5092908;28;20477;-71
2024/02/27 05:06:26;;;;;;;15.97;6.80;;;7.30;99.90;;;;;;5099323;28;21039;-70
2024/02/27 05:08:54;;;;;;;16.87;8.37;;;7.30;99.90;;;;;;5098437;28;20513;-70
2024/02/27 05:11:22;;;;;;;14.53;6.63;;;7.30;99.90;;;;;;5093634;28;20511;-70
2024/02/27 05:13:51;;;;;;;15.50;6.90;;;7.30;99.90;;;;;;5106423;28;20441;-70
2024/02/27 05:16:19;;;;;;;16.10;7.80;;;7.40;99.90;;;;;;5109190;28;20474;-69
2024/02/27 05:18:47;;;;;;;18.93;7.87;;;7.40;99.90;;;;;;5108270;28;20479;-70
2024/02/27 05:21:17;;;;;;;16.50;8.07;;;7.40;99.90;;;;;;5108294;28;21161;-70
2024/02/27 05:23:46;;;;;;;15.50;7.70;;;7.40;99.90;;;;;;5106500;28;20926;-70
2024/02/27 05:26:15;;;;;;;14.70;7.60;;;7.40;99.90;;;;;;5087606;28;20531;-70
2024/02/27 05:28:43;;;;;;;14.80;7.77;;;7.40;99.90;;;;;;5092009;28;20489;-70
2024/02/27 05:31:24;;;;;;;15.93;8.30;;;7.40;99.90;;;;;;5107954;28;20446;-70
2024/02/27 05:33:52;;;;;;;16.90;7.80;;;7.40;99.90;;;;;;5103167;28;20452;-70
2024/02/27 05:36:21;;;;;;;16.23;7.27;;;7.30;99.90;;;;;;5107599;28;20526;-70
2024/02/27 05:38:50;;;;;;;16.50;8.40;;;7.40;99.90;;;;;;5109103;28;20444;-70
2024/02/27 05:41:18;;;;;;;19.10;8.70;;;7.30;99.90;;;;;;5104815;28;20660;-70
2024/02/27 05:43:46;;;;;;;18.47;8.77;;;7.30;99.90;;;;;;5107069;28;20453;-70
2024/02/27 05:46:14;;;;;;;17.13;7.70;;;7.30;99.90;;;;;;5103470;28;20500;-70
2024/02/27 05:48:44;;;;;;;17.33;8.30;;;7.30;99.90;;;;;;5100412;28;20576;-70
2024/02/27 05:51:12;;;;;;;15.37;8.20;;;7.30;99.90;;;;;;5098278;28;20453;-70
2024/02/27 05:53:40;;;;;;;18.00;8.77;;;7.20;99.90;;;;;;5096952;28;20909;-70
2024/02/27 05:56:08;;;;;;;17.03;8.80;;;7.20;99.90;;;;;;5107622;28;21010;-73
2024/02/27 05:58:37;;;;;;;18.10;8.03;;;7.20;99.90;;;;;;5100775;28;21345;-69
2024/02/27 06:01:05;;;;;;;16.00;8.93;;;7.10;99.90;;;;;;5087034;28;20456;-68
2024/02/27 06:03:34;;;;;;;18.63;9.57;;;7.10;99.90;;;;;;5095963;28;20476;-70
2024/02/27 06:06:06;;;;;;;17.37;8.80;;;7.10;99.90;;;;;;5099122;28;20479;-70
2024/02/27 06:08:34;;;;;;;19.40;9.60;;;7.10;99.90;;;;;;5103170;28;20519;-69
2024/02/27 06:11:02;;;;;;;17.80;9.10;;;7.10;99.90;;;;;;5094680;28;20468;-70
2024/02/27 06:13:30;;;;;;;19.03;10.20;;;7.10;99.90;;;;;;5100549;28;20461;-69
2024/02/27 06:15:58;;;;;;;20.17;10.27;;;7.00;99.90;;;;;;5107240;28;20473;-70
2024/02/27 06:18:26;;;;;;;17.87;10.47;;;7.10;99.90;;;;;;5098865;28;20984;-70
2024/02/27 06:23:42;;;;;;;20.77;9.93;;;7.10;99.90;;;;;;5085852;28;20451;-69
2024/02/27 06:26:13;;;;;;;21.17;10.70;;;7.10;99.90;;;;;;5097751;28;20484;-69
2024/02/27 06:28:41;;;;;;;19.60;11.10;;;7.10;99.90;;;;;;5101918;28;20562;-69
2024/02/27 06:31:10;;;;;;;23.60;10.50;;;7.10;99.90;;;;;;5105792;28;20467;-69
2024/02/27 06:33:38;;;;;;;21.70;10.23;;;7.10;99.90;;;;;;5106126;28;20450;-70
2024/02/27 06:36:07;;;;;;;21.83;10.97;;;7.00;99.90;;;;;;5106897;28;20474;-69
2024/02/27 06:38:35;;;;;;;20.67;10.30;;;7.00;99.90;;;;;;5106960;28;20536;-69
2024/02/27 06:41:04;;;;;;;20.97;11.63;;;7.10;99.90;;;;;;5102929;28;20524;-70
2024/02/27 06:43:34;;;;;;;19.73;10.40;;;7.00;99.90;;;;;;5107180;28;20555;-70
2024/02/27 06:46:02;;;;;;;24.43;10.43;;;7.00;99.90;;;;;;5103897;28;20465;-69
2024/02/27 06:48:30;;;;;;;18.93;10.50;;;7.10;99.90;;;;;;5106932;28;20536;-69
2024/02/27 06:50:59;;;;;;;20.87;11.30;;;7.10;99.90;;;;;;5107600;28;20453;-68
2024/02/27 06:53:27;;;;;;;21.43;12.00;;;7.10;99.90;;;;;;5111321;28;20494;-70
2024/02/27 06:55:55;;;;;;;21.07;12.27;;;7.10;99.90;;;;;;5108250;28;20468;-70
2024/02/27 06:58:24;;;;;;;19.57;10.70;;;7.10;99.90;;;;;;5106412;28;20452;-70
2024/02/27 07:00:52;;;;;;;24.53;12.13;;;7.10;99.90;;;;;;5106764;28;20439;-68
2024/02/27 07:03:20;;;;;;;21.43;11.50;;;7.10;99.90;;;;;;5100857;28;20496;-69
2024/02/27 07:05:49;;;;;;;23.57;12.03;;;7.20;99.90;;;;;;5091749;28;20433;-71
2024/02/27 07:08:21;;;;;;;23.53;11.77;;;7.20;99.90;;;;;;5086606;28;20551;-70
2024/02/27 07:10:49;;;;;;;27.00;13.80;;;7.20;99.90;;;;;;5086640;28;21322;-70
2024/02/27 07:13:20;;;;;;;22.00;11.40;;;7.20;99.90;;;;;;5086975;28;20471;-71
2024/02/27 07:15:49;;;;;;;24.27;12.03;;;7.20;99.90;;;;;;5086978;28;20457;-71
2024/02/27 07:18:17;;;;;;;26.43;11.00;;;7.30;99.90;;;;;;5098618;28;20505;-70
2024/02/27 07:20:46;;;;;;;20.83;12.60;;;7.20;99.90;;;;;;5106986;28;20451;-70
2024/02/27 07:23:14;;;;;;;20.57;11.60;;;7.30;99.90;;;;;;5106955;28;21217;-70
2024/02/27 07:25:42;;;;;;;22.97;12.20;;;7.30;99.90;;;;;;5107442;28;20468;-70
2024/02/27 07:28:11;;;;;;;21.47;11.90;;;7.30;99.90;;;;;;5107374;28;20489;-69
2024/02/27 07:30:52;;;;;;;25.83;13.73;;;7.30;99.90;;;;;;5107527;28;20441;-70
2024/02/27 07:33:20;;;;;;;23.80;12.60;;;7.40;99.90;;;;;;5106759;28;20546;-70
2024/02/27 07:35:49;;;;;;;19.67;10.80;;;7.40;99.90;;;;;;5107196;28;20980;-69
2024/02/27 07:38:18;;;;;;;22.87;13.17;;;7.40;99.90;;;;;;5090678;28;20442;-70
2024/02/27 07:40:46;;;;;;;19.73;11.77;;;7.50;99.90;;;;;;5090854;28;20445;-69
2024/02/27 07:43:15;;;;;;;22.73;12.50;;;7.50;99.90;;;;;;5090950;28;20478;-70
2024/02/27 07:45:43;;;;;;;23.30;12.20;;;7.50;99.90;;;;;;5090316;28;20954;-70
2024/02/27 07:48:13;;;;;;;26.57;12.33;;;7.50;99.90;;;;;;5090490;28;20514;-70
2024/02/27 07:50:41;;;;;;;27.43;12.77;;;7.60;99.90;;;;;;5091746;28;20450;-70
2024/02/27 07:53:09;;;;;;;25.17;12.93;;;7.60;99.90;;;;;;5100409;28;20859;-71
2024/02/27 07:55:38;;;;;;;24.10;12.60;;;7.60;99.90;;;;;;5090257;28;20454;-71
2024/02/27 07:58:06;;;;;;;23.10;12.43;;;7.60;99.90;;;;;;5090687;28;20450;-70
2024/02/27 08:00:34;;;;;;;21.77;12.30;;;7.60;99.90;;;;;;5090350;28;20534;-70
2024/02/27 08:03:03;;;;;;;23.53;12.00;;;7.80;99.90;;;;;;5089965;28;20964;-69
2024/02/27 08:05:32;;;;;;;25.13;12.43;;;7.80;99.90;;;;;;5089950;28;20444;-70
2024/02/27 08:08:00;;;;;;;20.40;11.43;;;7.80;99.90;;;;;;5092119;28;20442;-70
2024/02/27 08:10:28;;;;;;;22.20;13.23;;;7.90;99.90;;;;;;5095236;28;20551;-69
2024/02/27 08:12:59;;;;;;;20.37;11.20;;;8.00;99.90;;;;;;5089662;28;20533;-70
2024/02/27 08:15:26;;;;;;;22.13;12.40;;;8.00;99.90;;;;;;5090625;28;20446;-70
2024/02/27 08:17:57;;;;;;;21.90;12.07;;;8.10;99.90;;;;;;5089984;28;20553;-70
2024/02/27 08:20:25;;;;;;;23.43;12.63;;;8.10;99.90;;;;;;5090200;28;20442;-70
2024/02/27 08:22:57;;;;;;;23.43;11.93;;;8.20;99.90;;;;;;5098838;28;20513;-70
2024/02/27 08:25:25;;;;;;;23.43;13.60;;;8.20;99.90;;;;;;5103259;28;20442;-70
2024/02/27 08:27:53;;;;;;;22.20;12.17;;;8.30;99.90;;;;;;5089509;28;20497;-70
2024/02/27 08:30:21;;;;;;;24.23;13.80;;;8.40;99.90;;;;;;5090276;28;20542;-70
2024/02/27 08:32:49;;;;;;;23.93;13.00;;;8.40;99.90;;;;;;5091107;28;20546;-69
2024/02/27 08:35:19;;;;;;;23.20;12.40;;;8.50;99.90;;;;;;5097582;28;20940;-70
2024/02/27 08:37:47;;;;;;;20.70;11.90;;;8.60;99.90;;;;;;5090346;28;20498;-70
2024/02/27 08:40:16;;;;;;;20.73;11.50;;;8.50;99.90;;;;;;5096834;28;20541;-70
2024/02/27 08:42:44;;;;;;;23.33;12.37;;;8.50;99.90;;;;;;5089501;28;20496;-70
2024/02/27 08:45:12;;;;;;;22.43;11.97;;;8.50;99.90;;;;;;5089956;28;20450;-70
2024/02/27 08:47:40;;;;;;;24.63;12.60;;;8.60;99.90;;;;;;5088672;28;20477;-70
2024/02/27 08:50:11;;;;;;;24.07;12.80;;;8.60;99.90;;;;;;5091325;28;20481;-69
2024/02/27 08:52:39;;;;;;;20.63;13.00;;;8.50;99.90;;;;;;5109463;28;20832;-70
2024/02/27 08:55:08;;;;;;;23.20;12.13;;;8.50;99.90;;;;;;5105499;28;20503;-69
2024/02/27 08:57:37;;;;;;;23.80;13.37;;;8.70;99.90;;;;;;5089530;28;20472;-70
2024/02/27 09:00:07;;;;;;;25.70;13.00;;;8.60;99.90;;;;;;5089509;28;20438;-70
2024/02/27 09:02:38;;;;;;;21.93;12.50;;;8.60;99.90;;;;;;5089043;28;20443;-70
2024/02/27 09:05:06;;;;;;;23.13;12.63;;;8.60;99.90;;;;;;5089352;28;20442;-69
2024/02/27 09:07:40;;;;;;;22.17;12.17;;;8.60;99.90;;;;;;5092298;28;20898;-70
2024/02/27 09:10:09;;;;;;;22.33;12.00;;;8.60;99.90;;;;;;5101475;28;20534;-70
2024/02/27 09:12:41;;;;;;;23.57;12.60;;;8.50;99.90;;;;;;5109439;28;20546;-70
2024/02/27 09:15:09;;;;;;;23.20;12.00;;;8.40;99.90;;;;;;5109430;28;20889;-69
2024/02/27 09:17:38;;;;;;;26.90;13.23;;;8.40;99.90;;;;;;5109123;28;20556;-70
2024/02/27 09:20:08;;;;;;;22.40;12.07;;;8.60;99.90;;;;;;5109685;28;20483;-70
2024/02/27 09:22:38;;;;;;;21.57;12.23;;;8.80;99.90;;;;;;5109090;28;21068;-69
2024/02/27 09:25:06;;;;;;;21.70;13.37;;;8.90;99.90;;;;;;5108857;28;20440;-70
2024/02/27 09:27:35;;;;;;;23.30;13.27;;;8.70;99.90;;;;;;5108163;28;20515;-71
2024/02/27 09:30:06;;;;;;;25.20;14.60;;;8.70;99.90;;;;;;5109274;28;20534;-69
2024/02/27 09:32:34;;;;;;;23.13;13.50;;;8.80;99.90;;;;;;5109408;28;20454;-69
2024/02/27 09:35:07;;;;;;;24.67;13.57;;;8.70;99.90;;;;;;5109320;28;20464;-69
2024/02/27 09:37:36;;;;;;;24.60;14.17;;;8.60;99.90;;;;;;5109341;28;20544;-69
2024/02/27 09:40:05;;;;;;;22.83;12.80;;;8.60;99.90;;;;;;5109232;28;20442;-69
2024/02/27 09:42:36;;;;;;;22.40;12.07;;;8.70;99.90;;;;;;5108079;28;20452;-69
2024/02/27 09:45:08;;;;;;;24.27;14.20;;;8.80;99.90;;;;;;5109369;28;20446;-70
2024/02/27 09:47:45;;;;;;;26.00;14.30;;;8.90;99.90;;;;;;5108796;28;21200;-70
2024/02/27 09:50:17;;;;;;;25.03;14.50;;;9.30;99.90;;;;;;5109091;28;20485;-70
2024/02/27 09:52:49;;;;;;;22.30;13.37;;;9.50;99.90;;;;;;5108914;28;20452;-69
2024/02/27 09:55:19;;;;;;;25.90;15.47;;;9.40;99.90;;;;;;5109217;28;20442;-70
2024/02/27 09:57:48;;;;;;;24.53;13.27;;;9.50;99.90;;;;;;5104634;28;20474;-69
2024/02/27 10:00:18;;;;;;;23.07;13.23;;;9.20;99.90;;;;;;5108091;28;20507;-70
2024/02/27 10:02:50;;;;;;;25.53;14.33;;;9.00;99.90;;;;;;5108462;28;20515;-70
2024/02/27 10:05:19;;;;;;;23.07;13.50;;;9.10;99.90;;;;;;5108436;28;20441;-69
2024/02/27 10:07:49;;;;;;;23.03;14.37;;;9.30;99.90;;;;;;5108418;28;20477;-69
2024/02/27 10:10:18;;;;;;;22.00;14.13;;;9.50;99.90;;;;;;5109105;28;20529;-69
2024/02/27 10:12:46;;;;;;;25.13;14.83;;;9.50;99.90;;;;;;5107905;28;20453;-70
2024/02/27 10:15:14;;;;;;;21.30;13.63;;;9.50;99.90;;;;;;5094795;28;20452;-69
2024/02/27 10:17:44;;;;;;;23.93;13.17;;;9.40;99.90;;;;;;5098100;28;20521;-70
2024/02/27 10:20:17;;;;;;;23.20;13.20;;;9.30;99.90;;;;;;5108175;28;20502;-70
2024/02/27 10:22:46;;;;;;;21.67;13.70;;;9.20;99.90;;;;;;5108156;28;20453;-69
2024/02/27 10:25:14;;;;;;;26.70;14.83;;;9.30;99.90;;;;;;5108487;28;20449;-69
2024/02/27 10:27:43;;;;;;;24.33;14.00;;;9.40;99.90;;;;;;5107903;28;20454;-70
2024/02/27 10:30:12;;;;;;;26.40;14.70;;;9.50;99.90;;;;;;5102981;28;20514;-69
2024/02/27 10:32:41;;;;;;;24.43;15.07;;;9.50;99.90;;;;;;5094354;28;20448;-70
2024/02/27 10:35:13;;;;;;;27.70;15.97;;;9.50;99.90;;;;;;5087717;28;20452;-70
2024/02/27 10:37:43;;;;;;;28.03;14.70;;;9.60;99.90;;;;;;5087592;28;20481;-70
2024/02/27 10:40:12;;;;;;;22.47;14.17;;;9.80;99.90;;;;;;5087924;28;20460;-69
2024/02/27 10:42:41;;;;;;;27.20;15.53;;;9.90;99.90;;;;;;5087683;28;20451;-70
2024/02/27 10:45:10;;;;;;;22.80;14.53;;;10.10;99.90;;;;;;5095020;28;20544;-69
2024/02/27 10:47:38;;;;;;;20.10;13.70;;;10.00;99.90;;;;;;5107835;28;20471;-70
2024/02/27 10:50:08;;;;;;;21.77;14.07;;;10.00;99.90;;;;;;5095961;28;20481;-70
2024/02/27 10:52:38;;;;;;;24.10;14.50;;;10.20;99.90;;;;;;5087510;28;20473;-69
2024/02/27 10:55:08;;;;;;;25.30;15.00;;;10.40;99.90;;;;;;5087172;28;20887;-70
2024/02/27 10:57:37;;;;;;;24.50;14.40;;;10.50;99.90;;;;;;5086359;28;20999;-69
2024/02/27 11:00:06;;;;;;;23.00;14.87;;;10.50;99.90;;;;;;5088715;28;20446;-70
2024/02/27 11:02:42;;;;;;;20.87;13.43;;;10.50;99.90;;;;;;5107465;28;20480;-70
2024/02/27 11:05:12;;;;;;;25.67;14.63;;;10.50;99.90;;;;;;5107803;28;20451;-70
2024/02/27 11:07:41;;;;;;;21.73;14.60;;;10.60;99.90;;;;;;5098011;28;20548;-70
2024/02/27 11:10:10;;;;;;;23.53;15.00;;;10.50;99.90;;;;;;5087497;28;20486;-70
2024/02/27 11:12:40;;;;;;;25.83;14.87;;;10.60;99.90;;;;;;5090787;28;20442;-70
2024/02/27 11:15:12;;;;;;;23.67;15.67;;;10.70;99.90;;;;;;5092585;28;20453;-70
2024/02/27 11:17:43;;;;;;;25.73;14.87;;;10.70;99.90;;;;;;5107160;28;20841;-70
2024/02/27 11:20:13;;;;;;;24.20;14.73;;;10.80;99.90;;;;;;5111235;28;20892;-70
2024/02/27 11:22:45;;;;;;;24.27;15.47;;;11.00;99.90;;;;;;5110697;28;20437;-70
2024/02/27 11:25:13;;;;;;;28.30;17.50;;;11.20;99.90;;;;;;5111512;28;20521;-70
2024/02/27 11:27:42;;;;;;;24.07;15.20;;;11.20;99.90;;;;;;5111927;28;20460;-70
2024/02/27 11:30:11;;;;;;;25.13;15.23;;;11.00;99.90;;;;;;5103209;28;20452;-70
2024/02/27 11:32:39;;;;;;;29.70;17.30;;;11.30;99.90;;;;;;5111569;28;21156;-70
2024/02/27 11:35:10;;;;;;;23.33;14.73;;;11.50;99.90;;;;;;5111799;28;20886;-70
2024/02/27 11:37:38;;;;;;;24.80;16.10;;;11.50;99.90;;;;;;5111496;28;20996;-70
2024/02/27 11:40:10;;;;;;;24.60;15.43;;;11.40;99.90;;;;;;5111723;28;20449;-70
2024/02/27 11:42:40;;;;;;;28.40;16.43;;;11.20;99.90;;;;;;5111408;28;20529;-70
2024/02/27 11:45:10;;;;;;;29.17;18.23;;;11.30;99.90;;;;;;5111241;28;21016;-70
2024/02/27 11:47:42;;;;;;;24.90;16.17;;;11.40;99.90;;;;;;5111261;28;20532;-70
2024/02/27 11:50:11;;;;;;;28.83;16.47;;;11.60;99.90;;;;;;5111178;28;21204;-70
2024/02/27 11:52:43;;;;;;;26.47;17.40;;;11.50;99.90;;;;;;5111039;28;20469;-70
2024/02/27 11:55:13;;;;;;;31.83;18.83;;;11.50;99.90;;;;;;5111184;28;20431;-70
2024/02/27 11:57:41;;;;;;;30.77;18.90;;;11.30;99.90;;;;;;5111079;28;20483;-70
2024/02/27 12:00:14;;;;;;;29.70;17.43;;;11.30;99.90;;;;;;5111178;28;20929;-70
2024/02/27 12:02:47;;;;;;;27.50;18.03;;;11.20;99.90;;;;;;5102097;28;20450;-70
2024/02/27 12:05:16;;;;;;;25.07;15.70;;;11.10;99.90;;;;;;5090914;28;20927;-70
2024/02/27 12:07:44;;;;;;;27.70;18.27;;;10.80;99.90;;;;;;5093904;28;20962;-70
2024/02/27 12:10:16;;;;;;;30.10;16.00;;;10.70;99.90;;;;;;5103220;28;21317;-70
2024/02/27 12:12:44;;;;;;;30.10;18.10;;;10.60;99.90;;;;;;5110850;28;20481;-69
2024/02/27 12:15:13;;;;;;;29.00;16.07;;;10.40;99.90;;;;;;5111072;28;20933;-70
2024/02/27 12:17:41;;;;;;;26.93;16.80;;;10.30;99.90;;;;;;5109926;28;20468;-70
2024/02/27 12:20:11;;;;;;;30.67;17.33;;;10.20;99.90;;;;;;5090991;28;20455;-70
2024/02/27 12:22:40;;;;;;;28.30;16.27;;;10.20;99.90;;;;;;5089172;28;20473;-70
2024/02/27 12:25:12;;;;;;;28.60;16.57;;;10.20;99.90;;;;;;5098126;28;20491;-70
2024/02/27 12:27:41;;;;;;;31.73;16.93;;;10.20;99.90;;;;;;5090350;28;20519;-70
2024/02/27 12:30:11;;;;;;;27.17;16.17;;;10.10;99.90;;;;;;5089989;28;20438;-70
2024/02/27 12:32:40;;;;;;;28.43;17.80;;;10.10;99.90;;;;;;5089503;28;20508;-70
2024/02/27 12:35:10;;;;;;;27.83;18.13;;;10.10;99.90;;;;;;5098050;28;20442;-70
2024/02/27 12:37:40;;;;;;;29.87;17.17;;;10.20;99.90;;;;;;5089303;28;20543;-70
2024/02/27 12:40:11;;;;;;;27.77;16.13;;;10.30;99.90;;;;;;5104346;28;20970;-70
2024/02/27 12:42:41;;;;;;;27.03;16.87;;;10.30;99.90;;;;;;5109478;28;21034;-70
2024/02/27 12:45:12;;;;;;;28.03;17.33;;;10.50;99.90;;;;;;5109890;28;20877;-70
2024/02/27 12:47:41;;;;;;;30.40;18.13;;;10.70;99.90;;;;;;5109479;28;20458;-70
2024/02/27 12:50:10;;;;;;;29.47;17.10;;;10.80;99.90;;;;;;5109402;28;20449;-70
2024/02/27 12:52:39;;;;;;;32.37;18.20;;;10.80;99.90;;;;;;5109359;28;20545;-70